sensor_id;sensor_type;location;lat;lon;timestamp;temperature;humidity
5689;DHT22;2869;50.432;8.680;2022-08-23T00:01:49;21.30;95.80
5689;DHT22;2869;50.432;8.680;2022-08-23T00:04:29;21.30;95.80
5689;DHT22;2869;50.432;8.680;2022-08-23T00:06:57;21.20;95.90
5689;DHT22;2869;50.432;8.680;2022-08-23T00:09:26;21.20;95.80
5689;DHT22;2869;50.432;8.680;2022-08-23T00:11:57;21.20;96.00
5689;DHT22;2869;50.432;8.680;2022-08-23T00:14:31;21.10;96.00
5689;DHT22;2869;50.432;8.680;2022-08-23T00:16:58;21.10;96.20
5689;DHT22;2869;50.432;8.680;2022-08-23T00:19:26;21.00;96.20
5689;DHT22;2869;50.432;8.680;2022-08-23T00:21:54;21.00;96.20
5689;DHT22;2869;50.432;8.680;2022-08-23T00:24:23;21.00;96.30
5689;DHT22;2869;50.432;8.680;2022-08-23T00:26:53;21.00;96.30
5689;DHT22;2869;50.432;8.680;2022-08-23T00:29:21;21.00;96.50
5689;DHT22;2869;50.432;8.680;2022-08-23T00:31:48;20.90;96.30
5689;DHT22;2869;50.432;8.680;2022-08-23T00:34:15;20.90;96.40
5689;DHT22;2869;50.432;8.680;2022-08-23T00:36:42;20.90;96.50
5689;DHT22;2869;50.432;8.680;2022-08-23T00:39:10;20.90;96.80
5689;DHT22;2869;50.432;8.680;2022-08-23T00:41:39;20.80;97.30
5689;DHT22;2869;50.432;8.680;2022-08-23T00:44:13;20.80;97.50
5689;DHT22;2869;50.432;8.680;2022-08-23T00:46:58;20.70;97.60
5689;DHT22;2869;50.432;8.680;2022-08-23T00:49:46;20.70;97.70
5689;DHT22;2869;50.432;8.680;2022-08-23T00:52:20;20.60;97.70
5689;DHT22;2869;50.432;8.680;2022-08-23T00:54:49;20.60;98.10
5689;DHT22;2869;50.432;8.680;2022-08-23T00:57:20;20.50;98.40
5689;DHT22;2869;50.432;8.680;2022-08-23T00:59:46;20.50;98.10
5689;DHT22;2869;50.432;8.680;2022-08-23T01:02:14;20.40;98.30
5689;DHT22;2869;50.432;8.680;2022-08-23T01:04:44;20.40;98.50
5689;DHT22;2869;50.432;8.680;2022-08-23T01:07:20;20.30;98.30
5689;DHT22;2869;50.432;8.680;2022-08-23T01:09:53;20.30;98.20
5689;DHT22;2869;50.432;8.680;2022-08-23T01:12:27;20.20;98.60
5689;DHT22;2869;50.432;8.680;2022-08-23T01:14:59;20.10;99.00
5689;DHT22;2869;50.432;8.680;2022-08-23T01:17:31;20.10;99.50
5689;DHT22;2869;50.432;8.680;2022-08-23T01:20:05;20.00;99.60
5689;DHT22;2869;50.432;8.680;2022-08-23T01:22:37;19.90;99.70
5689;DHT22;2869;50.432;8.680;2022-08-23T01:25:10;19.90;99.80
5689;DHT22;2869;50.432;8.680;2022-08-23T01:27:38;19.90;99.90
5689;DHT22;2869;50.432;8.680;2022-08-23T01:30:07;19.80;99.90
5689;DHT22;2869;50.432;8.680;2022-08-23T01:32:38;19.70;99.90
5689;DHT22;2869;50.432;8.680;2022-08-23T01:35:07;19.70;99.90
5689;DHT22;2869;50.432;8.680;2022-08-23T01:37:33;19.60;99.90
5689;DHT22;2869;50.432;8.680;2022-08-23T01:40:00;19.50;99.90
5689;DHT22;2869;50.432;8.680;2022-08-23T01:42:28;19.50;99.90
5689;DHT22;2869;50.432;8.680;2022-08-23T01:44:55;19.40;99.90
5689;DHT22;2869;50.432;8.680;2022-08-23T01:47:23;19.40;99.90
5689;DHT22;2869;50.432;8.680;2022-08-23T01:49:50;19.30;99.90
5689;DHT22;2869;50.432;8.680;2022-08-23T01:52:17;19.30;99.90
5689;DHT22;2869;50.432;8.680;2022-08-23T01:54:44;19.20;99.90
5689;DHT22;2869;50.432;8.680;2022-08-23T01:57:10;19.20;99.90
5689;DHT22;2869;50.432;8.680;2022-08-23T01:59:39;19.20;99.90
5689;DHT22;2869;50.432;8.680;2022-08-23T02:02:05;19.10;99.90
5689;DHT22;2869;50.432;8.680;2022-08-23T02:04:32;19.10;99.90
5689;DHT22;2869;50.432;8.680;2022-08-23T02:06:58;19.00;99.90
5689;DHT22;2869;50.432;8.680;2022-08-23T02:09:25;19.00;99.90
5689;DHT22;2869;50.432;8.680;2022-08-23T02:11:52;19.00;99.90
5689;DHT22;2869;50.432;8.680;2022-08-23T02:14:20;18.90;99.90
5689;DHT22;2869;50.432;8.680;2022-08-23T02:16:50;18.90;99.90
5689;DHT22;2869;50.432;8.680;2022-08-23T02:19:17;18.80;99.90
5689;DHT22;2869;50.432;8.680;2022-08-23T02:21:44;18.80;99.90
5689;DHT22;2869;50.432;8.680;2022-08-23T02:24:13;18.70;99.90
5689;DHT22;2869;50.432;8.680;2022-08-23T02:26:41;18.70;99.90
5689;DHT22;2869;50.432;8.680;2022-08-23T02:29:08;18.70;99.90
5689;DHT22;2869;50.432;8.680;2022-08-23T02:31:35;18.70;99.90
5689;DHT22;2869;50.432;8.680;2022-08-23T02:34:03;18.60;99.90
5689;DHT22;2869;50.432;8.680;2022-08-23T02:36:31;18.60;99.90
5689;DHT22;2869;50.432;8.680;2022-08-23T02:38:59;18.50;99.90
5689;DHT22;2869;50.432;8.680;2022-08-23T02:41:25;18.50;99.90
5689;DHT22;2869;50.432;8.680;2022-08-23T02:43:53;18.50;99.90
5689;DHT22;2869;50.432;8.680;2022-08-23T02:46:20;18.50;99.90
5689;DHT22;2869;50.432;8.680;2022-08-23T02:48:48;18.40;99.90
5689;DHT22;2869;50.432;8.680;2022-08-23T02:51:16;18.40;99.90
5689;DHT22;2869;50.432;8.680;2022-08-23T02:53:44;18.40;99.90
5689;DHT22;2869;50.432;8.680;2022-08-23T02:56:13;18.30;99.90
5689;DHT22;2869;50.432;8.680;2022-08-23T02:58:40;18.30;99.90
5689;DHT22;2869;50.432;8.680;2022-08-23T03:01:14;18.30;99.90
5689;DHT22;2869;50.432;8.680;2022-08-23T03:03:40;18.30;99.90
5689;DHT22;2869;50.432;8.680;2022-08-23T03:06:07;18.30;99.90
5689;DHT22;2869;50.432;8.680;2022-08-23T03:08:35;18.20;99.90
5689;DHT22;2869;50.432;8.680;2022-08-23T03:11:02;18.20;99.90
5689;DHT22;2869;50.432;8.680;2022-08-23T03:13:36;18.20;99.90
5689;DHT22;2869;50.432;8.680;2022-08-23T03:16:03;18.20;99.90
5689;DHT22;2869;50.432;8.680;2022-08-23T03:18:30;18.10;99.90
5689;DHT22;2869;50.432;8.680;2022-08-23T03:20:57;18.10;99.90
5689;DHT22;2869;50.432;8.680;2022-08-23T03:23:23;18.10;99.90
5689;DHT22;2869;50.432;8.680;2022-08-23T03:25:52;18.10;99.90
5689;DHT22;2869;50.432;8.680;2022-08-23T03:28:19;18.00;99.90
5689;DHT22;2869;50.432;8.680;2022-08-23T03:30:45;18.00;99.90
5689;DHT22;2869;50.432;8.680;2022-08-23T03:33:12;18.00;99.90
5689;DHT22;2869;50.432;8.680;2022-08-23T03:35:39;18.00;99.90
5689;DHT22;2869;50.432;8.680;2022-08-23T03:38:06;17.90;99.90
5689;DHT22;2869;50.432;8.680;2022-08-23T03:40:32;17.90;99.90
5689;DHT22;2869;50.432;8.680;2022-08-23T03:43:01;17.80;99.90
5689;DHT22;2869;50.432;8.680;2022-08-23T03:45:29;17.80;99.90
5689;DHT22;2869;50.432;8.680;2022-08-23T03:47:56;17.80;99.90
5689;DHT22;2869;50.432;8.680;2022-08-23T03:50:23;17.80;99.90
5689;DHT22;2869;50.432;8.680;2022-08-23T03:52:49;17.70;99.90
5689;DHT22;2869;50.432;8.680;2022-08-23T03:55:16;17.70;99.90
5689;DHT22;2869;50.432;8.680;2022-08-23T03:57:43;17.70;99.90
5689;DHT22;2869;50.432;8.680;2022-08-23T04:00:13;17.60;99.90
5689;DHT22;2869;50.432;8.680;2022-08-23T04:02:40;17.60;99.90
5689;DHT22;2869;50.432;8.680;2022-08-23T04:05:07;17.60;99.90
5689;DHT22;2869;50.432;8.680;2022-08-23T04:07:35;17.50;99.90
5689;DHT22;2869;50.432;8.680;2022-08-23T04:10:02;17.50;99.90
5689;DHT22;2869;50.432;8.680;2022-08-23T04:12:29;17.50;99.90
5689;DHT22;2869;50.432;8.680;2022-08-23T04:14:55;17.40;99.90
5689;DHT22;2869;50.432;8.680;2022-08-23T04:17:23;17.40;99.90
5689;DHT22;2869;50.432;8.680;2022-08-23T04:19:50;17.40;99.90
5689;DHT22;2869;50.432;8.680;2022-08-23T04:22:18;17.40;99.90
5689;DHT22;2869;50.432;8.680;2022-08-23T04:24:45;17.40;99.90
5689;DHT22;2869;50.432;8.680;2022-08-23T04:27:12;17.30;99.90
5689;DHT22;2869;50.432;8.680;2022-08-23T04:29:39;17.30;99.90
5689;DHT22;2869;50.432;8.680;2022-08-23T04:32:07;17.30;99.90
5689;DHT22;2869;50.432;8.680;2022-08-23T04:34:35;17.30;99.90
5689;DHT22;2869;50.432;8.680;2022-08-23T04:37:04;17.20;99.90
5689;DHT22;2869;50.432;8.680;2022-08-23T04:39:31;17.20;99.90
5689;DHT22;2869;50.432;8.680;2022-08-23T04:42:18;17.20;99.90
5689;DHT22;2869;50.432;8.680;2022-08-23T04:44:43;17.10;99.90
5689;DHT22;2869;50.432;8.680;2022-08-23T04:47:10;17.10;99.90
5689;DHT22;2869;50.432;8.680;2022-08-23T04:49:38;17.10;99.90
5689;DHT22;2869;50.432;8.680;2022-08-23T04:52:05;17.10;99.90
5689;DHT22;2869;50.432;8.680;2022-08-23T04:54:32;17.10;99.90
5689;DHT22;2869;50.432;8.680;2022-08-23T04:56:58;17.10;99.90
5689;DHT22;2869;50.432;8.680;2022-08-23T04:59:25;17.10;99.90
5689;DHT22;2869;50.432;8.680;2022-08-23T05:01:52;17.10;99.90
5689;DHT22;2869;50.432;8.680;2022-08-23T05:04:18;17.10;99.90
5689;DHT22;2869;50.432;8.680;2022-08-23T05:06:46;17.10;99.90
5689;DHT22;2869;50.432;8.680;2022-08-23T05:09:13;17.10;99.90
5689;DHT22;2869;50.432;8.680;2022-08-23T05:11:40;17.20;99.90
5689;DHT22;2869;50.432;8.680;2022-08-23T05:14:06;17.20;99.90
5689;DHT22;2869;50.432;8.680;2022-08-23T05:16:33;17.20;99.90
5689;DHT22;2869;50.432;8.680;2022-08-23T05:18:59;17.20;99.90
5689;DHT22;2869;50.432;8.680;2022-08-23T05:21:26;17.20;99.90
5689;DHT22;2869;50.432;8.680;2022-08-23T05:23:54;17.20;99.90
5689;DHT22;2869;50.432;8.680;2022-08-23T05:26:21;17.20;99.90
5689;DHT22;2869;50.432;8.680;2022-08-23T05:28:48;17.20;99.90
5689;DHT22;2869;50.432;8.680;2022-08-23T05:31:18;17.30;99.90
5689;DHT22;2869;50.432;8.680;2022-08-23T05:33:45;17.50;99.90
5689;DHT22;2869;50.432;8.680;2022-08-23T05:36:14;17.80;99.90
5689;DHT22;2869;50.432;8.680;2022-08-23T05:38:42;18.10;99.90
5689;DHT22;2869;50.432;8.680;2022-08-23T05:41:10;18.40;99.90
5689;DHT22;2869;50.432;8.680;2022-08-23T05:43:37;18.60;99.90
5689;DHT22;2869;50.432;8.680;2022-08-23T05:46:05;18.70;99.90
5689;DHT22;2869;50.432;8.680;2022-08-23T05:48:34;18.80;99.90
5689;DHT22;2869;50.432;8.680;2022-08-23T05:51:08;19.00;99.90
5689;DHT22;2869;50.432;8.680;2022-08-23T05:53:35;19.30;99.90
5689;DHT22;2869;50.432;8.680;2022-08-23T05:56:10;19.50;99.90
5689;DHT22;2869;50.432;8.680;2022-08-23T05:58:37;19.80;99.90
5689;DHT22;2869;50.432;8.680;2022-08-23T06:01:03;20.10;99.90
5689;DHT22;2869;50.432;8.680;2022-08-23T06:03:32;20.30;99.90
5689;DHT22;2869;50.432;8.680;2022-08-23T06:05:59;20.50;99.90
5689;DHT22;2869;50.432;8.680;2022-08-23T06:08:27;20.80;99.90
5689;DHT22;2869;50.432;8.680;2022-08-23T06:10:59;21.10;99.90
5689;DHT22;2869;50.432;8.680;2022-08-23T06:13:27;21.40;99.90
5689;DHT22;2869;50.432;8.680;2022-08-23T06:15:54;21.60;99.90
5689;DHT22;2869;50.432;8.680;2022-08-23T06:18:21;21.80;99.90
5689;DHT22;2869;50.432;8.680;2022-08-23T06:20:48;22.10;99.90
5689;DHT22;2869;50.432;8.680;2022-08-23T06:23:14;22.30;99.90
5689;DHT22;2869;50.432;8.680;2022-08-23T06:25:41;22.50;99.90
5689;DHT22;2869;50.432;8.680;2022-08-23T06:28:07;22.80;99.90
5689;DHT22;2869;50.432;8.680;2022-08-23T06:30:37;22.80;99.90
5689;DHT22;2869;50.432;8.680;2022-08-23T06:33:03;23.00;99.90
5689;DHT22;2869;50.432;8.680;2022-08-23T06:35:30;23.00;99.90
5689;DHT22;2869;50.432;8.680;2022-08-23T06:37:57;23.10;99.90
5689;DHT22;2869;50.432;8.680;2022-08-23T06:40:23;23.30;99.90
5689;DHT22;2869;50.432;8.680;2022-08-23T06:42:53;23.20;99.90
5689;DHT22;2869;50.432;8.680;2022-08-23T06:45:20;23.10;99.90
5689;DHT22;2869;50.432;8.680;2022-08-23T06:47:48;23.20;99.90
5689;DHT22;2869;50.432;8.680;2022-08-23T06:50:15;23.20;99.90
5689;DHT22;2869;50.432;8.680;2022-08-23T06:52:46;23.30;99.90
5689;DHT22;2869;50.432;8.680;2022-08-23T06:55:12;23.20;99.90
5689;DHT22;2869;50.432;8.680;2022-08-23T06:57:39;23.20;99.90
5689;DHT22;2869;50.432;8.680;2022-08-23T07:00:07;23.30;99.90
5689;DHT22;2869;50.432;8.680;2022-08-23T07:02:35;23.40;99.90
5689;DHT22;2869;50.432;8.680;2022-08-23T07:05:04;23.50;99.90
5689;DHT22;2869;50.432;8.680;2022-08-23T07:07:31;23.70;99.90
5689;DHT22;2869;50.432;8.680;2022-08-23T07:09:57;23.90;99.90
5689;DHT22;2869;50.432;8.680;2022-08-23T07:12:24;24.10;99.90
5689;DHT22;2869;50.432;8.680;2022-08-23T07:14:51;24.10;99.90
5689;DHT22;2869;50.432;8.680;2022-08-23T07:17:17;23.90;99.90
5689;DHT22;2869;50.432;8.680;2022-08-23T07:19:44;23.70;99.90
5689;DHT22;2869;50.432;8.680;2022-08-23T07:22:12;23.50;99.90
5689;DHT22;2869;50.432;8.680;2022-08-23T07:24:39;23.40;99.90
5689;DHT22;2869;50.432;8.680;2022-08-23T07:27:07;23.40;99.90
5689;DHT22;2869;50.432;8.680;2022-08-23T07:29:36;23.40;99.90
5689;DHT22;2869;50.432;8.680;2022-08-23T07:32:04;23.50;99.90
5689;DHT22;2869;50.432;8.680;2022-08-23T07:34:31;23.80;99.90
5689;DHT22;2869;50.432;8.680;2022-08-23T07:36:58;23.80;99.90
5689;DHT22;2869;50.432;8.680;2022-08-23T07:39:27;24.00;99.90
5689;DHT22;2869;50.432;8.680;2022-08-23T07:41:57;23.70;99.90
5689;DHT22;2869;50.432;8.680;2022-08-23T07:44:24;23.70;99.90
5689;DHT22;2869;50.432;8.680;2022-08-23T07:46:51;23.90;99.90
5689;DHT22;2869;50.432;8.680;2022-08-23T07:49:17;24.20;99.90
5689;DHT22;2869;50.432;8.680;2022-08-23T07:51:46;24.40;99.90
5689;DHT22;2869;50.432;8.680;2022-08-23T07:54:13;24.80;99.90
5689;DHT22;2869;50.432;8.680;2022-08-23T07:56:41;24.90;99.90
5689;DHT22;2869;50.432;8.680;2022-08-23T07:59:08;25.00;99.90
5689;DHT22;2869;50.432;8.680;2022-08-23T08:01:36;25.00;99.90
5689;DHT22;2869;50.432;8.680;2022-08-23T08:04:04;25.00;99.90
5689;DHT22;2869;50.432;8.680;2022-08-23T08:06:33;25.10;99.90
5689;DHT22;2869;50.432;8.680;2022-08-23T08:09:00;25.10;99.90
5689;DHT22;2869;50.432;8.680;2022-08-23T08:11:29;25.10;99.90
5689;DHT22;2869;50.432;8.680;2022-08-23T08:13:57;25.30;99.90
5689;DHT22;2869;50.432;8.680;2022-08-23T08:16:27;25.50;99.90
5689;DHT22;2869;50.432;8.680;2022-08-23T08:18:56;26.00;99.90
5689;DHT22;2869;50.432;8.680;2022-08-23T08:21:24;26.20;99.90
5689;DHT22;2869;50.432;8.680;2022-08-23T08:23:51;26.40;99.90
5689;DHT22;2869;50.432;8.680;2022-08-23T08:26:18;26.50;99.50
5689;DHT22;2869;50.432;8.680;2022-08-23T08:28:45;26.50;99.20
5689;DHT22;2869;50.432;8.680;2022-08-23T08:31:13;26.60;98.90
5689;DHT22;2869;50.432;8.680;2022-08-23T08:33:40;26.60;98.80
5689;DHT22;2869;50.432;8.680;2022-08-23T08:36:07;26.70;98.70
5689;DHT22;2869;50.432;8.680;2022-08-23T08:38:37;26.70;98.30
5689;DHT22;2869;50.432;8.680;2022-08-23T08:41:10;26.40;98.30
5689;DHT22;2869;50.432;8.680;2022-08-23T08:43:51;26.10;98.60
5689;DHT22;2869;50.432;8.680;2022-08-23T08:46:31;26.30;98.50
5689;DHT22;2869;50.432;8.680;2022-08-23T08:49:04;26.20;98.30
5689;DHT22;2869;50.432;8.680;2022-08-23T08:51:37;26.40;98.20
5689;DHT22;2869;50.432;8.680;2022-08-23T08:54:09;26.50;98.50
5689;DHT22;2869;50.432;8.680;2022-08-23T08:56:38;26.50;98.00
5689;DHT22;2869;50.432;8.680;2022-08-23T08:59:07;26.50;98.20
5689;DHT22;2869;50.432;8.680;2022-08-23T09:01:37;26.70;98.60
5689;DHT22;2869;50.432;8.680;2022-08-23T09:04:05;26.80;97.50
5689;DHT22;2869;50.432;8.680;2022-08-23T09:06:46;27.10;97.40
5689;DHT22;2869;50.432;8.680;2022-08-23T09:09:31;27.10;97.10
5689;DHT22;2869;50.432;8.680;2022-08-23T09:12:10;27.10;97.50
5689;DHT22;2869;50.432;8.680;2022-08-23T09:14:57;27.10;96.70
5689;DHT22;2869;50.432;8.680;2022-08-23T09:17:35;27.10;96.70
5689;DHT22;2869;50.432;8.680;2022-08-23T09:20:05;27.00;96.50
5689;DHT22;2869;50.432;8.680;2022-08-23T09:22:35;26.90;96.40
5689;DHT22;2869;50.432;8.680;2022-08-23T09:25:07;27.10;96.40
5689;DHT22;2869;50.432;8.680;2022-08-23T09:27:35;27.10;96.00
5689;DHT22;2869;50.432;8.680;2022-08-23T09:30:02;27.20;96.20
5689;DHT22;2869;50.432;8.680;2022-08-23T09:32:32;27.30;96.40
5689;DHT22;2869;50.432;8.680;2022-08-23T09:35:09;27.50;95.50
5689;DHT22;2869;50.432;8.680;2022-08-23T09:37:52;27.40;94.90
5689;DHT22;2869;50.432;8.680;2022-08-23T09:40:27;27.20;95.20
5689;DHT22;2869;50.432;8.680;2022-08-23T09:43:07;27.40;95.40
5689;DHT22;2869;50.432;8.680;2022-08-23T09:45:37;27.50;95.40
5689;DHT22;2869;50.432;8.680;2022-08-23T09:48:09;27.90;95.00
5689;DHT22;2869;50.432;8.680;2022-08-23T09:50:40;28.00;94.40
5689;DHT22;2869;50.432;8.680;2022-08-23T09:53:12;28.10;94.80
5689;DHT22;2869;50.432;8.680;2022-08-23T09:55:42;28.30;94.30
5689;DHT22;2869;50.432;8.680;2022-08-23T09:58:16;28.50;94.00
5689;DHT22;2869;50.432;8.680;2022-08-23T10:00:45;28.70;94.00
5689;DHT22;2869;50.432;8.680;2022-08-23T10:03:28;28.90;93.80
5689;DHT22;2869;50.432;8.680;2022-08-23T10:05:57;29.10;92.80
5689;DHT22;2869;50.432;8.680;2022-08-23T10:08:28;29.00;93.00
5689;DHT22;2869;50.432;8.680;2022-08-23T10:11:02;29.20;92.90
5689;DHT22;2869;50.432;8.680;2022-08-23T10:13:30;29.20;93.10
5689;DHT22;2869;50.432;8.680;2022-08-23T10:16:04;29.10;92.50
5689;DHT22;2869;50.432;8.680;2022-08-23T10:18:45;28.90;92.80
5689;DHT22;2869;50.432;8.680;2022-08-23T10:21:20;28.70;93.10
5689;DHT22;2869;50.432;8.680;2022-08-23T10:23:56;28.80;93.40
5689;DHT22;2869;50.432;8.680;2022-08-23T10:26:31;29.00;93.00
5689;DHT22;2869;50.432;8.680;2022-08-23T10:29:05;29.00;92.90
5689;DHT22;2869;50.432;8.680;2022-08-23T10:31:57;29.20;93.30
5689;DHT22;2869;50.432;8.680;2022-08-23T10:34:40;29.40;92.80
5689;DHT22;2869;50.432;8.680;2022-08-23T10:39:59;29.50;92.90
5689;DHT22;2869;50.432;8.680;2022-08-23T10:42:35;29.50;92.70
5689;DHT22;2869;50.432;8.680;2022-08-23T10:45:14;29.60;92.80
5689;DHT22;2869;50.432;8.680;2022-08-23T10:47:52;29.80;92.50
5689;DHT22;2869;50.432;8.680;2022-08-23T10:50:26;30.10;92.50
5689;DHT22;2869;50.432;8.680;2022-08-23T10:52:57;30.30;92.50
5689;DHT22;2869;50.432;8.680;2022-08-23T10:55:32;30.40;91.80
5689;DHT22;2869;50.432;8.680;2022-08-23T10:58:05;30.30;91.50
5689;DHT22;2869;50.432;8.680;2022-08-23T11:00:33;30.20;91.90
5689;DHT22;2869;50.432;8.680;2022-08-23T11:03:09;30.30;91.60
5689;DHT22;2869;50.432;8.680;2022-08-23T11:05:41;30.30;91.50
5689;DHT22;2869;50.432;8.680;2022-08-23T11:08:10;30.40;91.40
5689;DHT22;2869;50.432;8.680;2022-08-23T11:10:46;30.50;91.30
5689;DHT22;2869;50.432;8.680;2022-08-23T11:13:22;30.70;90.80
5689;DHT22;2869;50.432;8.680;2022-08-23T11:15:57;30.80;91.30
5689;DHT22;2869;50.432;8.680;2022-08-23T11:18:37;31.10;91.60
5689;DHT22;2869;50.432;8.680;2022-08-23T11:21:10;31.40;90.50
5689;DHT22;2869;50.432;8.680;2022-08-23T11:24:32;31.50;89.90
5689;DHT22;2869;50.432;8.680;2022-08-23T11:27:34;31.60;90.20
5689;DHT22;2869;50.432;8.680;2022-08-23T11:33:13;31.50;89.70
5689;DHT22;2869;50.432;8.680;2022-08-23T11:35:44;32.00;89.30
5689;DHT22;2869;50.432;8.680;2022-08-23T11:38:15;31.90;87.60
5689;DHT22;2869;50.432;8.680;2022-08-23T11:40:57;31.70;87.90
5689;DHT22;2869;50.432;8.680;2022-08-23T11:43:30;31.50;87.90
5689;DHT22;2869;50.432;8.680;2022-08-23T11:46:24;31.60;87.90
5689;DHT22;2869;50.432;8.680;2022-08-23T11:49:02;32.10;87.60
5689;DHT22;2869;50.432;8.680;2022-08-23T11:51:41;32.60;85.20
5689;DHT22;2869;50.432;8.680;2022-08-23T11:54:26;32.80;84.90
5689;DHT22;2869;50.432;8.680;2022-08-23T11:57:03;33.10;83.80
5689;DHT22;2869;50.432;8.680;2022-08-23T12:00:00;33.00;82.30
5689;DHT22;2869;50.432;8.680;2022-08-23T12:02:49;32.80;84.20
5689;DHT22;2869;50.432;8.680;2022-08-23T12:05:39;32.90;82.10
5689;DHT22;2869;50.432;8.680;2022-08-23T12:08:31;33.00;82.00
5689;DHT22;2869;50.432;8.680;2022-08-23T12:11:09;33.00;80.70
5689;DHT22;2869;50.432;8.680;2022-08-23T12:13:56;33.00;81.50
5689;DHT22;2869;50.432;8.680;2022-08-23T12:16:31;33.00;79.70
5689;DHT22;2869;50.432;8.680;2022-08-23T12:19:03;32.80;79.30
5689;DHT22;2869;50.432;8.680;2022-08-23T12:21:33;32.80;80.70
5689;DHT22;2869;50.432;8.680;2022-08-23T12:24:23;32.70;78.20
5689;DHT22;2869;50.432;8.680;2022-08-23T12:27:04;32.70;77.20
5689;DHT22;2869;50.432;8.680;2022-08-23T12:29:39;33.00;78.70
5689;DHT22;2869;50.432;8.680;2022-08-23T12:32:12;33.40;77.40
5689;DHT22;2869;50.432;8.680;2022-08-23T12:34:50;33.30;78.00
5689;DHT22;2869;50.432;8.680;2022-08-23T12:37:27;33.30;77.20
5689;DHT22;2869;50.432;8.680;2022-08-23T12:39:59;33.00;78.40
5689;DHT22;2869;50.432;8.680;2022-08-23T12:42:31;33.10;78.30
5689;DHT22;2869;50.432;8.680;2022-08-23T12:45:06;33.20;77.30
5689;DHT22;2869;50.432;8.680;2022-08-23T12:47:33;33.10;76.50
5689;DHT22;2869;50.432;8.680;2022-08-23T12:50:04;33.10;76.60
5689;DHT22;2869;50.432;8.680;2022-08-23T12:52:34;32.80;77.50
5689;DHT22;2869;50.432;8.680;2022-08-23T12:55:02;32.40;78.10
5689;DHT22;2869;50.432;8.680;2022-08-23T12:57:40;32.40;78.60
5689;DHT22;2869;50.432;8.680;2022-08-23T13:00:18;32.30;79.50
5689;DHT22;2869;50.432;8.680;2022-08-23T13:02:50;32.40;78.10
5689;DHT22;2869;50.432;8.680;2022-08-23T13:05:21;32.60;78.20
5689;DHT22;2869;50.432;8.680;2022-08-23T13:07:51;32.80;78.10
5689;DHT22;2869;50.432;8.680;2022-08-23T13:10:19;32.30;76.30
5689;DHT22;2869;50.432;8.680;2022-08-23T13:12:47;32.00;77.70
5689;DHT22;2869;50.432;8.680;2022-08-23T13:15:38;31.90;78.00
5689;DHT22;2869;50.432;8.680;2022-08-23T13:18:05;32.00;78.90
5689;DHT22;2869;50.432;8.680;2022-08-23T13:20:32;32.00;78.10
5689;DHT22;2869;50.432;8.680;2022-08-23T13:23:02;31.80;77.40
5689;DHT22;2869;50.432;8.680;2022-08-23T13:25:33;31.50;78.10
5689;DHT22;2869;50.432;8.680;2022-08-23T13:28:04;31.30;78.40
5689;DHT22;2869;50.432;8.680;2022-08-23T13:30:32;31.40;79.10
5689;DHT22;2869;50.432;8.680;2022-08-23T13:33:20;31.30;77.60
5689;DHT22;2869;50.432;8.680;2022-08-23T13:35:48;31.30;78.00
5689;DHT22;2869;50.432;8.680;2022-08-23T13:38:20;31.30;78.20
5689;DHT22;2869;50.432;8.680;2022-08-23T13:40:57;31.80;78.40
5689;DHT22;2869;50.432;8.680;2022-08-23T13:43:29;32.40;76.80
5689;DHT22;2869;50.432;8.680;2022-08-23T13:46:00;33.00;75.70
5689;DHT22;2869;50.432;8.680;2022-08-23T13:48:35;33.20;74.40
5689;DHT22;2869;50.432;8.680;2022-08-23T13:51:19;32.80;73.80
5689;DHT22;2869;50.432;8.680;2022-08-23T13:53:50;32.60;74.40
5689;DHT22;2869;50.432;8.680;2022-08-23T13:56:17;32.60;74.70
5689;DHT22;2869;50.432;8.680;2022-08-23T13:58:52;32.50;74.70
5689;DHT22;2869;50.432;8.680;2022-08-23T14:01:19;32.30;73.70
5689;DHT22;2869;50.432;8.680;2022-08-23T14:03:46;32.30;73.70
5689;DHT22;2869;50.432;8.680;2022-08-23T14:06:12;32.60;74.00
5689;DHT22;2869;50.432;8.680;2022-08-23T14:08:39;32.50;73.50
5689;DHT22;2869;50.432;8.680;2022-08-23T14:11:06;32.30;74.10
5689;DHT22;2869;50.432;8.680;2022-08-23T14:13:33;32.10;74.90
5689;DHT22;2869;50.432;8.680;2022-08-23T14:16:06;31.70;75.00
5689;DHT22;2869;50.432;8.680;2022-08-23T14:18:33;31.30;74.40
5689;DHT22;2869;50.432;8.680;2022-08-23T14:21:00;31.10;75.20
5689;DHT22;2869;50.432;8.680;2022-08-23T14:23:27;31.00;76.10
5689;DHT22;2869;50.432;8.680;2022-08-23T14:25:55;31.10;75.90
5689;DHT22;2869;50.432;8.680;2022-08-23T14:28:27;30.90;74.80
5689;DHT22;2869;50.432;8.680;2022-08-23T14:30:54;30.80;75.30
5689;DHT22;2869;50.432;8.680;2022-08-23T14:33:23;30.80;75.60
5689;DHT22;2869;50.432;8.680;2022-08-23T14:35:49;30.80;75.60
5689;DHT22;2869;50.432;8.680;2022-08-23T14:38:18;30.80;75.00
5689;DHT22;2869;50.432;8.680;2022-08-23T14:40:49;30.90;75.60
5689;DHT22;2869;50.432;8.680;2022-08-23T14:43:17;31.00;75.60
5689;DHT22;2869;50.432;8.680;2022-08-23T14:45:44;31.20;74.50
5689;DHT22;2869;50.432;8.680;2022-08-23T14:48:11;31.30;74.00
5689;DHT22;2869;50.432;8.680;2022-08-23T14:50:40;31.60;74.10
5689;DHT22;2869;50.432;8.680;2022-08-23T14:53:07;31.80;73.10
5689;DHT22;2869;50.432;8.680;2022-08-23T14:55:34;31.90;72.60
5689;DHT22;2869;50.432;8.680;2022-08-23T14:58:01;31.70;72.40
5689;DHT22;2869;50.432;8.680;2022-08-23T15:00:28;31.70;72.50
5689;DHT22;2869;50.432;8.680;2022-08-23T15:02:55;31.80;72.60
5689;DHT22;2869;50.432;8.680;2022-08-23T15:05:22;31.90;72.60
5689;DHT22;2869;50.432;8.680;2022-08-23T15:07:50;32.00;72.20
5689;DHT22;2869;50.432;8.680;2022-08-23T15:10:17;31.90;72.50
5689;DHT22;2869;50.432;8.680;2022-08-23T15:12:43;31.90;72.10
5689;DHT22;2869;50.432;8.680;2022-08-23T15:15:12;31.80;72.10
5689;DHT22;2869;50.432;8.680;2022-08-23T15:17:44;31.70;73.00
5689;DHT22;2869;50.432;8.680;2022-08-23T15:20:12;31.80;72.20
5689;DHT22;2869;50.432;8.680;2022-08-23T15:22:38;32.00;73.40
5689;DHT22;2869;50.432;8.680;2022-08-23T15:25:07;32.20;70.50
5689;DHT22;2869;50.432;8.680;2022-08-23T15:27:34;32.20;70.80
5689;DHT22;2869;50.432;8.680;2022-08-23T15:30:01;32.20;70.40
5689;DHT22;2869;50.432;8.680;2022-08-23T15:32:27;32.10;70.40
5689;DHT22;2869;50.432;8.680;2022-08-23T15:34:54;32.20;71.00
5689;DHT22;2869;50.432;8.680;2022-08-23T15:37:21;32.40;70.80
5689;DHT22;2869;50.432;8.680;2022-08-23T15:39:48;32.50;70.80
5689;DHT22;2869;50.432;8.680;2022-08-23T15:42:16;32.30;70.50
5689;DHT22;2869;50.432;8.680;2022-08-23T15:44:43;32.20;71.20
5689;DHT22;2869;50.432;8.680;2022-08-23T15:47:16;32.00;70.50
5689;DHT22;2869;50.432;8.680;2022-08-23T15:49:43;31.70;70.70
5689;DHT22;2869;50.432;8.680;2022-08-23T15:52:10;31.50;71.20
5689;DHT22;2869;50.432;8.680;2022-08-23T15:54:36;31.60;71.00
5689;DHT22;2869;50.432;8.680;2022-08-23T15:57:04;31.60;70.80
5689;DHT22;2869;50.432;8.680;2022-08-23T15:59:32;31.70;71.00
5689;DHT22;2869;50.432;8.680;2022-08-23T16:02:02;31.80;70.10
5689;DHT22;2869;50.432;8.680;2022-08-23T16:04:29;31.70;69.90
5689;DHT22;2869;50.432;8.680;2022-08-23T16:06:55;31.90;70.50
5689;DHT22;2869;50.432;8.680;2022-08-23T16:09:23;32.00;71.00
5689;DHT22;2869;50.432;8.680;2022-08-23T16:11:50;32.10;70.30
5689;DHT22;2869;50.432;8.680;2022-08-23T16:14:17;32.30;69.80
5689;DHT22;2869;50.432;8.680;2022-08-23T16:16:45;32.20;69.70
5689;DHT22;2869;50.432;8.680;2022-08-23T16:19:13;32.10;70.00
5689;DHT22;2869;50.432;8.680;2022-08-23T16:21:41;31.80;69.70
5689;DHT22;2869;50.432;8.680;2022-08-23T16:24:08;31.60;70.80
5689;DHT22;2869;50.432;8.680;2022-08-23T16:26:37;31.40;71.20
5689;DHT22;2869;50.432;8.680;2022-08-23T16:29:07;31.20;71.30